createdAt,value
2023-05-02T00:01:44.132Z,10.27
2023-05-02T00:04:10.779Z,9.98
2023-05-02T00:06:37.359Z,15.50
2023-05-02T00:09:03.926Z,11.38
2023-05-02T00:11:30.369Z,10.88
2023-05-02T00:13:56.850Z,9.57
2023-05-02T00:16:23.207Z,12.00
2023-05-02T00:18:52.015Z,9.05
2023-05-02T00:21:19.093Z,9.73
2023-05-02T00:23:45.496Z,9.52
2023-05-02T00:26:11.846Z,9.45
2023-05-02T00:28:38.385Z,8.70
2023-05-02T00:31:05.017Z,8.73
2023-05-02T00:33:31.853Z,10.90
2023-05-02T00:35:58.269Z,12.15
2023-05-02T00:38:24.833Z,11.60
2023-05-02T00:40:51.466Z,10.80
2023-05-02T00:43:18.327Z,12.85
2023-05-02T00:45:45.518Z,12.35
2023-05-02T00:48:12.933Z,11.50
2023-05-02T00:50:41.627Z,10.88
2023-05-02T00:53:10.007Z,12.77
2023-05-02T00:55:36.854Z,12.55
2023-05-02T00:58:06.231Z,15.15
2023-05-02T01:00:57.626Z,14.63
2023-05-02T01:03:39.868Z,14.50
2023-05-02T01:06:44.235Z,15.25
2023-05-02T01:09:29.005Z,15.52
2023-05-02T01:12:16.210Z,15.57
2023-05-02T01:14:47.101Z,15.27
2023-05-02T01:19:45.567Z,14.77
2023-05-02T01:22:13.251Z,19.25
2023-05-02T01:25:00.491Z,18.58
2023-05-02T01:27:45.774Z,16.73
2023-05-02T01:30:14.520Z,17.00
2023-05-02T01:32:45.552Z,16.17
2023-05-02T01:35:15.489Z,17.05
2023-05-02T01:37:45.097Z,14.13
2023-05-02T01:40:14.107Z,14.57
2023-05-02T01:42:42.142Z,17.73
2023-05-02T01:45:10.790Z,19.45
2023-05-02T01:47:39.583Z,17.33
2023-05-02T01:50:08.868Z,17.10
2023-05-02T01:52:36.902Z,16.15
2023-05-02T01:55:06.336Z,14.38
2023-05-02T01:57:33.082Z,14.38
2023-05-02T02:00:00.913Z,10.75
2023-05-02T02:02:29.508Z,12.93
2023-05-02T02:04:57.458Z,14.75
2023-05-02T02:07:24.488Z,13.85
2023-05-02T02:09:51.762Z,11.93
2023-05-02T02:12:26.501Z,13.30
2023-05-02T02:15:16.233Z,13.15
2023-05-02T02:18:05.513Z,12.95
2023-05-02T02:20:32.885Z,10.10
2023-05-02T02:23:03.150Z,10.63
2023-05-02T02:25:30.167Z,10.13
2023-05-02T02:27:57.122Z,12.35
2023-05-02T02:30:23.677Z,10.52
2023-05-02T02:32:50.253Z,11.98
2023-05-02T02:35:16.869Z,10.90
2023-05-02T02:37:59.181Z,11.73
2023-05-02T02:40:31.824Z,15.98
2023-05-02T02:43:13.583Z,11.63
2023-05-02T02:46:18.297Z,13.05
2023-05-02T02:49:04.023Z,11.15
2023-05-02T02:51:56.876Z,14.32
2023-05-02T02:54:32.637Z,14.40
2023-05-02T02:57:07.536Z,16.45
2023-05-02T02:59:38.475Z,17.00
2023-05-02T03:02:17.217Z,11.35
2023-05-02T03:04:46.639Z,14.77
2023-05-02T03:07:13.406Z,17.02
2023-05-02T03:09:47.040Z,11.20
2023-05-02T03:12:14.285Z,14.77
2023-05-02T03:14:41.377Z,18.05
2023-05-02T03:17:07.811Z,15.80
2023-05-02T03:19:34.698Z,15.98
2023-05-02T03:22:01.214Z,17.92
2023-05-02T03:24:27.603Z,15.10
2023-05-02T03:26:57.893Z,13.48
2023-05-02T03:29:24.846Z,13.23
2023-05-02T03:31:51.436Z,14.00
2023-05-02T03:34:18.190Z,12.70
2023-05-02T03:36:44.575Z,11.90
2023-05-02T03:39:11.090Z,13.35
2023-05-02T03:41:37.669Z,13.52
2023-05-02T03:44:04.340Z,17.10
2023-05-02T03:46:30.789Z,12.68
2023-05-02T03:49:00.267Z,14.40
2023-05-02T03:51:26.941Z,13.15
2023-05-02T03:53:53.682Z,18.27
2023-05-02T03:56:20.765Z,13.00
2023-05-02T03:58:48.392Z,16.58
2023-05-02T04:01:16.081Z,12.75
2023-05-02T04:03:43.550Z,15.98
2023-05-02T04:06:10.202Z,11.60
2023-05-02T04:08:36.612Z,16.27
2023-05-02T04:11:03.142Z,15.75
2023-05-02T04:13:29.630Z,11.50
2023-05-02T04:15:56.580Z,13.88
2023-05-02T04:18:22.985Z,12.80
2023-05-02T04:20:50.522Z,17.13
2023-05-02T04:23:16.907Z,16.55
2023-05-02T04:25:55.008Z,14.73
2023-05-02T04:28:21.985Z,12.48
2023-05-02T04:30:52.746Z,16.33
2023-05-02T04:35:45.972Z,14.85
2023-05-02T04:38:12.441Z,15.88
2023-05-02T04:40:39.237Z,15.57
2023-05-02T04:43:05.559Z,14.32
2023-05-02T04:45:32.112Z,15.05
2023-05-02T04:47:58.657Z,13.52
2023-05-02T04:50:25.146Z,12.90
2023-05-02T04:52:51.535Z,14.32
2023-05-02T04:55:18.264Z,13.20
2023-05-02T04:57:45.089Z,13.65
2023-05-02T05:00:12.528Z,15.70
2023-05-02T05:02:39.341Z,16.50
2023-05-02T05:05:06.538Z,14.75
2023-05-02T05:07:33.033Z,16.67
2023-05-02T05:09:59.716Z,14.85
2023-05-02T05:12:26.702Z,18.08
2023-05-02T05:14:55.650Z,13.48
2023-05-02T05:17:22.402Z,16.48
2023-05-02T05:19:49.121Z,15.45
2023-05-02T05:22:15.627Z,14.77
2023-05-02T05:24:42.084Z,12.77
2023-05-02T05:27:08.746Z,13.55
2023-05-02T05:29:35.200Z,11.48
2023-05-02T05:32:02.330Z,12.68
2023-05-02T05:34:31.040Z,10.60
2023-05-02T05:36:59.423Z,11.27
2023-05-02T05:39:25.836Z,10.73
2023-05-02T05:41:52.297Z,9.05
2023-05-02T05:44:19.070Z,8.23
2023-05-02T05:46:45.587Z,8.63
2023-05-02T05:49:12.098Z,10.82
2023-05-02T05:51:40.955Z,10.27
2023-05-02T05:54:07.428Z,11.25
2023-05-02T05:56:34.212Z,10.30
2023-05-02T05:59:00.642Z,10.15
2023-05-02T06:01:27.035Z,10.02
2023-05-02T06:03:53.416Z,8.25
2023-05-02T06:06:20.089Z,11.38
2023-05-02T06:08:46.720Z,8.85
2023-05-02T06:11:13.236Z,15.10
2023-05-02T06:13:39.607Z,11.40
2023-05-02T06:16:06.473Z,11.60
2023-05-02T06:18:32.957Z,14.68
2023-05-02T06:21:04.395Z,15.50
2023-05-02T06:23:30.935Z,13.32
2023-05-02T06:26:02.649Z,13.02
2023-05-02T06:28:29.897Z,14.45
2023-05-02T06:31:03.285Z,18.23
2023-05-02T06:33:30.694Z,16.02
2023-05-02T06:35:59.168Z,17.98
2023-05-02T06:38:27.133Z,15.20
2023-05-02T06:40:54.040Z,14.55
2023-05-02T06:43:20.615Z,14.18
2023-05-02T06:45:47.053Z,12.77
2023-05-02T06:48:13.613Z,11.75
2023-05-02T06:50:40.168Z,10.43
2023-05-02T06:53:06.771Z,13.80
2023-05-02T06:55:33.215Z,15.45
2023-05-02T06:58:01.044Z,11.90
2023-05-02T07:00:27.603Z,13.73
2023-05-02T07:02:54.312Z,12.93
2023-05-02T07:05:20.838Z,14.30
2023-05-02T07:07:47.947Z,10.07
2023-05-02T07:10:14.486Z,11.20
2023-05-02T07:12:41.011Z,12.80
2023-05-02T07:15:08.141Z,10.40
2023-05-02T07:17:34.939Z,10.68
2023-05-02T07:20:01.691Z,11.88
2023-05-02T07:22:28.248Z,11.13
2023-05-02T07:24:59.081Z,12.23
2023-05-02T07:27:25.775Z,9.73
2023-05-02T07:29:52.563Z,10.27
2023-05-02T07:32:20.811Z,10.18
2023-05-02T07:34:47.646Z,10.57
2023-05-02T07:37:14.475Z,9.00
2023-05-02T07:39:40.994Z,13.68
2023-05-02T07:42:07.443Z,12.30
2023-05-02T07:44:34.309Z,14.07
2023-05-02T07:47:01.023Z,12.85
2023-05-02T07:49:27.589Z,16.33
2023-05-02T07:51:54.040Z,13.73
2023-05-02T07:54:22.039Z,13.40
2023-05-02T07:56:48.622Z,18.17
2023-05-02T07:59:15.214Z,16.52
2023-05-02T08:01:41.897Z,17.17
2023-05-02T08:04:09.330Z,17.05
2023-05-02T08:06:36.165Z,14.07
2023-05-02T08:09:02.851Z,15.68
2023-05-02T08:11:29.492Z,19.88
2023-05-02T08:13:56.228Z,15.25
2023-05-02T08:16:23.066Z,17.10
2023-05-02T08:18:49.515Z,14.60
2023-05-02T08:21:15.936Z,16.52
2023-05-02T08:23:42.694Z,16.35
2023-05-02T08:26:09.417Z,18.20
2023-05-02T08:28:36.390Z,16.13
2023-05-02T08:31:02.972Z,15.43
2023-05-02T08:33:30.509Z,19.05
2023-05-02T08:35:57.028Z,22.40
2023-05-02T08:38:23.401Z,18.67
2023-05-02T08:40:49.918Z,14.52
2023-05-02T08:43:16.786Z,18.63
2023-05-02T08:45:44.769Z,16.85
2023-05-02T08:48:13.336Z,26.70
2023-05-02T08:50:41.385Z,22.98
2023-05-02T08:53:12.576Z,23.63
2023-05-02T08:55:41.153Z,20.13
2023-05-02T08:58:08.725Z,27.35
2023-05-02T09:00:39.656Z,20.45
2023-05-02T09:03:21.275Z,22.27
2023-05-02T09:05:54.386Z,25.52
2023-05-02T09:08:24.533Z,22.25
2023-05-02T09:10:51.510Z,28.02
2023-05-02T09:13:33.642Z,23.40
2023-05-02T09:16:04.089Z,26.45
2023-05-02T09:18:33.132Z,19.60
2023-05-02T09:21:00.534Z,20.33
2023-05-02T09:23:46.722Z,27.23
2023-05-02T09:26:21.121Z,20.73
2023-05-02T09:28:55.572Z,21.83
2023-05-02T09:31:49.875Z,19.58
2023-05-02T09:34:16.060Z,18.73
2023-05-02T09:36:46.627Z,18.50
2023-05-02T09:39:16.126Z,18.77
2023-05-02T09:41:44.620Z,19.80
2023-05-02T09:44:12.995Z,20.73
2023-05-02T09:46:40.852Z,19.65
2023-05-02T09:49:07.652Z,21.80
2023-05-02T09:51:34.426Z,16.55
2023-05-02T09:54:01.302Z,18.67
2023-05-02T09:56:30.075Z,19.73
2023-05-02T09:59:26.131Z,20.33
2023-05-02T10:02:04.167Z,19.63
2023-05-02T10:04:35.050Z,22.25
2023-05-02T10:07:03.401Z,22.00
2023-05-02T10:09:30.666Z,18.27
2023-05-02T10:11:57.352Z,23.65
2023-05-02T10:14:26.340Z,20.08
2023-05-02T10:17:05.439Z,19.48
2023-05-02T10:19:40.901Z,19.95
2023-05-02T10:22:08.208Z,17.73
2023-05-02T10:24:35.023Z,18.90
2023-05-02T10:27:04.632Z,17.55
2023-05-02T10:29:32.589Z,17.53
2023-05-02T10:32:01.550Z,17.92
2023-05-02T10:34:28.401Z,18.98
2023-05-02T10:36:55.427Z,17.45
2023-05-02T10:39:22.094Z,20.85
2023-05-02T10:41:48.956Z,21.48
2023-05-02T10:44:15.339Z,15.48
2023-05-02T10:46:41.734Z,16.63
2023-05-02T10:49:12.652Z,15.68
2023-05-02T10:51:40.819Z,14.95
2023-05-02T10:54:24.301Z,14.23
2023-05-02T10:56:59.946Z,15.48
2023-05-02T10:59:28.280Z,23.05
2023-05-02T11:01:54.923Z,18.08
2023-05-02T11:04:21.423Z,18.67
2023-05-02T11:06:56.914Z,17.90
2023-05-02T11:09:24.374Z,15.55
2023-05-02T11:11:52.097Z,19.10
2023-05-02T11:14:27.556Z,18.33
2023-05-02T11:17:03.128Z,16.42
2023-05-02T11:19:37.108Z,22.02
2023-05-02T11:22:18.993Z,16.38
2023-05-02T11:24:47.383Z,16.30
2023-05-02T11:27:29.091Z,15.43
2023-05-02T11:30:06.379Z,18.98
2023-05-02T11:32:45.547Z,18.02
2023-05-02T11:35:17.810Z,15.32
2023-05-02T11:37:53.610Z,15.68
2023-05-02T11:40:20.122Z,15.57
2023-05-02T11:42:47.157Z,14.73
2023-05-02T11:45:15.155Z,19.30
2023-05-02T11:47:43.015Z,16.88
2023-05-02T11:50:10.009Z,17.10
2023-05-02T11:52:40.959Z,16.42
2023-05-02T11:55:11.112Z,16.13
2023-05-02T11:57:38.877Z,17.42
2023-05-02T12:00:06.175Z,15.75
2023-05-02T12:02:46.484Z,14.23
2023-05-02T12:05:14.606Z,14.65
2023-05-02T12:07:46.040Z,17.58
2023-05-02T12:10:13.760Z,15.77
2023-05-02T12:12:41.473Z,14.27
2023-05-02T12:15:09.981Z,17.23
2023-05-02T12:17:42.838Z,16.25
2023-05-02T12:20:10.969Z,16.40
2023-05-02T12:22:38.276Z,20.17
2023-05-02T12:25:05.946Z,16.23
2023-05-02T12:27:32.530Z,14.30
2023-05-02T12:29:59.574Z,15.98
2023-05-02T12:32:31.272Z,18.25
2023-05-02T12:34:59.016Z,17.25
2023-05-02T12:37:26.984Z,18.13
2023-05-02T12:39:54.374Z,17.63
2023-05-02T12:42:22.876Z,14.48
2023-05-02T12:44:51.306Z,15.68
2023-05-02T12:47:19.199Z,16.52
2023-05-02T12:49:59.277Z,15.20
2023-05-02T12:52:49.581Z,15.38
2023-05-02T12:55:20.092Z,13.35
2023-05-02T12:57:47.318Z,14.45
2023-05-02T13:00:16.541Z,15.68
2023-05-02T13:02:43.209Z,19.85
2023-05-02T13:05:17.144Z,25.35
2023-05-02T13:07:43.671Z,21.92
2023-05-02T13:10:10.502Z,21.33
2023-05-02T13:12:37.070Z,27.65
2023-05-02T13:15:04.673Z,26.17
2023-05-02T13:17:31.310Z,21.15
2023-05-02T13:20:02.002Z,25.85
2023-05-02T13:22:29.268Z,26.42
2023-05-02T13:24:55.709Z,24.52
2023-05-02T13:27:26.037Z,30.25
2023-05-02T13:29:52.916Z,25.65
2023-05-02T13:32:19.838Z,26.80
2023-05-02T13:34:46.266Z,24.20
2023-05-02T13:37:12.758Z,25.48
2023-05-02T13:39:39.290Z,20.75
2023-05-02T13:42:06.207Z,24.50
2023-05-02T13:44:33.021Z,24.00
2023-05-02T13:46:59.731Z,23.80
2023-05-02T13:49:26.438Z,22.75
2023-05-02T13:51:52.970Z,24.52
2023-05-02T13:54:19.995Z,22.00
2023-05-02T13:56:46.514Z,19.85
2023-05-02T13:59:13.294Z,21.20
2023-05-02T14:01:40.096Z,17.75
2023-05-02T14:04:07.374Z,20.40
2023-05-02T14:06:34.985Z,23.67
2023-05-02T14:09:01.908Z,19.50
2023-05-02T14:11:28.335Z,18.35
2023-05-02T14:13:55.132Z,23.05
2023-05-02T14:16:21.692Z,17.73
2023-05-02T14:18:48.176Z,18.42
2023-05-02T14:21:14.679Z,16.83
2023-05-02T14:23:41.125Z,17.15
2023-05-02T14:26:07.840Z,18.02
2023-05-02T14:28:34.373Z,20.20
2023-05-02T14:31:00.960Z,17.73
2023-05-02T14:33:27.420Z,18.17
2023-05-02T14:35:53.971Z,19.00
2023-05-02T14:38:20.432Z,16.05
2023-05-02T14:40:47.645Z,14.63
2023-05-02T14:43:14.164Z,15.02
2023-05-02T14:45:40.557Z,20.65
2023-05-02T14:48:06.997Z,16.55
2023-05-02T14:50:33.376Z,19.05
2023-05-02T14:53:00.194Z,17.63
2023-05-02T14:55:26.680Z,14.27
2023-05-02T14:57:53.147Z,14.88
2023-05-02T15:00:19.824Z,11.68
2023-05-02T15:02:46.480Z,14.63
2023-05-02T15:05:14.021Z,13.30
2023-05-02T15:07:40.598Z,13.18
2023-05-02T15:10:07.779Z,13.43
2023-05-02T15:12:34.484Z,12.63
2023-05-02T15:15:00.958Z,13.38
2023-05-02T15:17:27.499Z,13.75
2023-05-02T15:19:55.355Z,12.70
2023-05-02T15:22:23.630Z,11.82
2023-05-02T15:24:50.118Z,10.90
2023-05-02T15:27:16.821Z,9.32
2023-05-02T15:29:43.248Z,10.98
2023-05-02T15:32:09.625Z,10.35
2023-05-02T15:34:36.366Z,11.98
2023-05-02T15:37:02.812Z,14.07
2023-05-02T15:39:29.455Z,12.50
2023-05-02T15:41:55.931Z,14.15
2023-05-02T15:44:22.704Z,13.40
2023-05-02T15:46:49.222Z,13.98
2023-05-02T15:49:16.354Z,12.10
2023-05-02T15:51:42.871Z,14.20
2023-05-02T15:54:09.374Z,12.63
2023-05-02T15:56:37.536Z,12.57
2023-05-02T15:59:04.072Z,10.10
2023-05-02T16:01:33.873Z,13.18
2023-05-02T16:04:00.602Z,11.10
2023-05-02T16:06:27.095Z,13.10
2023-05-02T16:08:53.560Z,10.85
2023-05-02T16:11:22.080Z,9.85
2023-05-02T16:13:48.623Z,10.07
2023-05-02T16:16:15.133Z,9.82
2023-05-02T16:18:41.667Z,9.95
2023-05-02T16:21:08.113Z,12.77
2023-05-02T16:23:34.576Z,10.38
2023-05-02T16:26:01.299Z,10.65
2023-05-02T16:28:28.649Z,9.02
2023-05-02T16:30:55.244Z,10.63
2023-05-02T16:33:21.940Z,12.02
2023-05-02T16:35:50.135Z,10.60
2023-05-02T16:38:16.817Z,9.25
2023-05-02T16:40:43.962Z,9.93
2023-05-02T16:43:10.473Z,9.93
2023-05-02T16:45:39.354Z,8.90
2023-05-02T16:48:06.294Z,8.93
2023-05-02T16:50:40.550Z,10.20
2023-05-02T16:53:07.265Z,9.15
2023-05-02T16:55:33.551Z,8.32
2023-05-02T16:58:00.471Z,6.68
2023-05-02T17:00:26.848Z,6.95
2023-05-02T17:02:53.406Z,10.50
2023-05-02T17:05:20.256Z,6.40
2023-05-02T17:07:46.647Z,6.85
2023-05-02T17:10:13.433Z,6.15
2023-05-02T17:12:40.208Z,6.40
2023-05-02T17:15:07.000Z,6.75
2023-05-02T17:17:33.409Z,6.75
2023-05-02T17:20:00.397Z,6.07
2023-05-02T17:22:28.315Z,5.35
2023-05-02T17:24:57.693Z,5.90
2023-05-02T17:27:24.282Z,4.22
2023-05-02T17:29:51.018Z,4.75
2023-05-02T17:32:18.533Z,5.95
2023-05-02T17:34:45.043Z,6.43
2023-05-02T17:37:11.517Z,6.00
2023-05-02T17:39:39.297Z,4.95
2023-05-02T17:42:06.849Z,5.97
2023-05-02T17:44:34.392Z,6.20
2023-05-02T17:47:00.875Z,7.32
2023-05-02T17:49:27.792Z,6.88
2023-05-02T17:51:54.281Z,8.73
2023-05-02T17:54:22.261Z,7.53
2023-05-02T17:56:48.763Z,8.10
2023-05-02T17:59:16.636Z,6.90
2023-05-02T18:01:43.177Z,6.60
2023-05-02T18:04:09.724Z,7.60
2023-05-02T18:06:41.609Z,6.18
2023-05-02T18:09:08.257Z,5.80
2023-05-02T18:11:34.705Z,6.85
2023-05-02T18:14:01.053Z,5.47
2023-05-02T18:16:29.835Z,5.28
2023-05-02T18:18:56.644Z,4.05
2023-05-02T18:21:23.424Z,6.53
2023-05-02T18:23:50.206Z,7.70
2023-05-02T18:26:17.137Z,8.98
2023-05-02T18:28:44.630Z,7.70
2023-05-02T18:31:17.594Z,6.70
2023-05-02T18:33:44.716Z,9.48
2023-05-02T18:36:11.179Z,10.05
2023-05-02T18:38:42.830Z,6.20
2023-05-02T18:41:13.065Z,6.47
2023-05-02T18:43:41.934Z,7.30
2023-05-02T18:46:10.320Z,8.32
2023-05-02T18:48:40.231Z,4.20
2023-05-02T18:51:10.436Z,6.93
2023-05-02T18:53:37.202Z,7.05
2023-05-02T18:56:03.854Z,6.47
2023-05-02T18:58:30.401Z,5.47
2023-05-02T19:00:56.773Z,9.38
2023-05-02T19:03:23.266Z,8.40
2023-05-02T19:05:51.615Z,8.55
2023-05-02T19:08:19.481Z,7.95
2023-05-02T19:10:46.323Z,8.38
2023-05-02T19:13:18.016Z,7.28
2023-05-02T19:15:45.337Z,7.82
2023-05-02T19:18:12.112Z,9.70
2023-05-02T19:20:38.644Z,7.45
2023-05-02T19:23:18.981Z,8.77
2023-05-02T19:25:47.628Z,7.88
2023-05-02T19:28:14.089Z,8.25
2023-05-02T19:30:41.932Z,8.18
2023-05-02T19:33:08.559Z,8.60
2023-05-02T19:35:35.882Z,11.13
2023-05-02T19:38:03.357Z,6.45
2023-05-02T19:40:29.841Z,7.22
2023-05-02T19:42:56.183Z,10.73
2023-05-02T19:45:22.686Z,7.53
2023-05-02T19:47:52.265Z,6.43
2023-05-02T19:50:18.873Z,6.78
2023-05-02T19:52:45.490Z,7.18
2023-05-02T19:55:14.680Z,10.02
2023-05-02T19:57:41.091Z,9.40
2023-05-02T20:00:08.413Z,8.10
2023-05-02T20:02:35.344Z,11.32
2023-05-02T20:05:01.921Z,10.98
2023-05-02T20:07:30.784Z,9.23
2023-05-02T20:10:00.133Z,9.48
2023-05-02T20:12:27.385Z,9.82
2023-05-02T20:14:53.777Z,7.55
2023-05-02T20:17:20.252Z,9.50
2023-05-02T20:19:46.669Z,8.70
2023-05-02T20:22:13.029Z,9.73
2023-05-02T20:24:39.838Z,10.68
2023-05-02T20:27:06.313Z,10.93
2023-05-02T20:29:32.878Z,11.05
2023-05-02T20:31:59.494Z,10.07
2023-05-02T20:34:27.395Z,9.32
2023-05-02T20:36:53.722Z,12.82
2023-05-02T20:39:20.093Z,15.43
2023-05-02T20:41:47.011Z,10.10
2023-05-02T20:44:13.449Z,12.15
2023-05-02T20:46:41.935Z,9.00
2023-05-02T20:49:08.660Z,8.40
2023-05-02T20:51:35.106Z,7.63
2023-05-02T20:54:01.602Z,8.60
2023-05-02T20:56:28.041Z,7.47
2023-05-02T20:58:56.424Z,5.55
2023-05-02T21:01:23.127Z,8.07
2023-05-02T21:03:49.591Z,9.80
2023-05-02T21:06:15.927Z,8.18
2023-05-02T21:08:42.680Z,7.20
2023-05-02T21:11:16.058Z,5.28
2023-05-02T21:13:43.544Z,5.40
2023-05-02T21:16:18.162Z,4.68
2023-05-02T21:18:45.912Z,5.88
2023-05-02T21:21:12.686Z,5.40
2023-05-02T21:23:39.367Z,5.50
2023-05-02T21:26:06.043Z,5.82
2023-05-02T21:28:33.207Z,6.32
2023-05-02T21:31:02.427Z,6.70
2023-05-02T21:33:28.934Z,10.70
2023-05-02T21:35:58.265Z,7.03
2023-05-02T21:38:26.176Z,8.50
2023-05-02T21:40:53.411Z,5.78
2023-05-02T21:43:19.867Z,7.78
2023-05-02T21:45:47.378Z,9.45
2023-05-02T21:48:15.319Z,9.27
2023-05-02T21:50:43.753Z,10.00
2023-05-02T21:53:10.758Z,6.93
2023-05-02T21:55:37.213Z,10.23
2023-05-02T21:58:04.275Z,6.07
2023-05-02T22:00:30.836Z,5.68
2023-05-02T22:02:57.507Z,5.38
2023-05-02T22:05:23.989Z,5.10
2023-05-02T22:07:51.524Z,5.25
2023-05-02T22:10:18.295Z,5.00
2023-05-02T22:12:44.878Z,6.65
2023-05-02T22:15:11.683Z,4.95
2023-05-02T22:17:38.408Z,5.75
2023-05-02T22:20:05.827Z,5.85
2023-05-02T22:22:32.224Z,6.20
2023-05-02T22:24:58.651Z,6.57
2023-05-02T22:27:25.221Z,6.85
2023-05-02T22:29:51.580Z,5.35
2023-05-02T22:32:18.313Z,4.18
2023-05-02T22:34:45.041Z,4.25
2023-05-02T22:37:11.418Z,6.55
2023-05-02T22:39:37.819Z,5.10
2023-05-02T22:42:04.218Z,4.47
2023-05-02T22:44:32.189Z,4.95
2023-05-02T22:47:00.288Z,5.18
2023-05-02T22:49:27.149Z,6.13
2023-05-02T22:51:53.764Z,6.38
2023-05-02T22:54:20.450Z,5.75
2023-05-02T22:56:46.867Z,10.02
2023-05-02T22:59:13.324Z,11.10
2023-05-02T23:01:40.090Z,11.73
2023-05-02T23:04:06.936Z,12.15
2023-05-02T23:06:33.471Z,10.18
2023-05-02T23:08:59.988Z,10.20
2023-05-02T23:11:26.694Z,10.60
2023-05-02T23:13:53.490Z,12.57
2023-05-02T23:16:19.949Z,28.15
2023-05-02T23:18:49.540Z,14.35
2023-05-02T23:21:16.897Z,17.30
2023-05-02T23:23:43.283Z,13.30
2023-05-02T23:26:12.358Z,18.15
2023-05-02T23:28:39.834Z,13.07
2023-05-02T23:31:07.180Z,14.20
2023-05-02T23:33:34.609Z,11.85
2023-05-02T23:36:01.768Z,13.35
2023-05-02T23:38:28.316Z,12.30
2023-05-02T23:40:55.158Z,11.35
2023-05-02T23:43:22.350Z,13.10
2023-05-02T23:45:48.750Z,11.90
2023-05-02T23:48:15.140Z,13.55
2023-05-02T23:50:41.882Z,11.93
2023-05-02T23:53:08.303Z,11.40
2023-05-02T23:55:34.794Z,13.05
2023-05-02T23:58:01.788Z,10.98
